首页
METAR-TAF:

METAR-TAF

机场 :

Bradford, 宾夕法尼亚州, 美国

纬度: 41-47-55N, 经度: 078-38-09W, 海拔: 653米

当前天气观测

该预报发布于12分钟前的11:44 UTC
风速14节,风向西,有时为25节阵风
温度 -6°C
湿度 79%
气压 1000 hPa
能見度: 1.6公里
少量云层高于1000英尺
阴天层高于1500英尺
小雪

METAR: KBFD 271144Z AUTO 28014G25KT 1SM -SN FEW010 OVC015 M06/M09 A2954 RMK AO2 P0000 T10611089

时间: 06:56 (11:56 UTC)

预报

该预报发布于15分钟前的11:41 UTC
预报有效从27日的 12点(UTC)到 28日的 12点(UTC)
风速15节,风向西,有时为25节阵风
能見度: 1.6公里
阴天层高于1000英尺
小阵雪, 高吹雪
从 27日的 1800点(UTC)
风速20节,风向西,有时为30节阵风
能見度: 3.2公里
阴天层高于1500英尺
小阵雪, 高吹雪
从 28日的 0000点(UTC)
风速15节,风向西,有时为25节阵风
能見度: 4.8公里
阴天层高于1500英尺
小阵雪

TAF: KBFD 271141Z 2712/2812 28015G25KT 1SM -SHSN BLSN OVC010 FM271800 28020G30KT 2SM -SHSN BLSN OVC015 FM280000 28015G25KT 3SM -SHSN OVC015

超过4000个机场的气象观测和天气预报(METAR&TAF报告)。

可查询的气象台以黄色和红色小点在地图上表示。

将鼠标移到小点上方,可查看气象台名称。

然后点击查看天气观测和预报。

如需切换地图:点击带黑十字的绿色按钮放大地图;点击带横线的绿色按钮缩小地图;或者点击绿色箭头查看邻近地区的地图。


METAR-TAF: